Terminal Aerodrome Forecast
Issued by NWS Boston, MA

Home | Current Version | Previous Version | Text Only | Print | Product List | Glossary On
Versions: 1 2 3 4 5 6 7 8 9 10 11 12 13 14 15 16 17 18 19 20 21
000
FTUS41 KBOX 061720
TAFPVD
TAF
KPVD 061720Z 0618/0718 04010KT P6SM FEW200
     FM062000 09006KT P6SM FEW150
     FM070400 05006KT P6SM OVC015
     FM070800 04006KT 3SM -RA OVC015
     FM071200 05005KT P6SM VCSH OVC015
     FM071700 12004KT P6SM BKN015=

USA.gov is the U.S. government's official web portal to all federal, state and local government web resources and services.